sensor_id;sensor_type;location;lat;lon;timestamp;pressure;altitude;pressure_sealevel;temperature;humidity
22755;BME280;11544;42.020;23.094;2023-02-01T00:01:13;97322.50;;;2.80;82.10
22755;BME280;11544;42.020;23.094;2023-02-01T00:03:40;97331.06;;;2.82;81.67
22755;BME280;11544;42.020;23.094;2023-02-01T00:06:10;97339.69;;;2.75;81.64
22755;BME280;11544;42.020;23.094;2023-02-01T00:08:38;97338.84;;;2.62;81.75
22755;BME280;11544;42.020;23.094;2023-02-01T00:11:14;97339.66;;;2.78;81.81
22755;BME280;11544;42.020;23.094;2023-02-01T00:13:41;97343.94;;;2.81;81.70
22755;BME280;11544;42.020;23.094;2023-02-01T00:16:14;97336.22;;;2.71;82.11
22755;BME280;11544;42.020;23.094;2023-02-01T00:18:44;97339.66;;;2.83;82.65
22755;BME280;11544;42.020;23.094;2023-02-01T00:21:15;97343.94;;;2.82;83.25
22755;BME280;11544;42.020;23.094;2023-02-01T00:23:42;97340.56;;;2.68;84.05
22755;BME280;11544;42.020;23.094;2023-02-01T00:26:18;97344.81;;;2.69;85.04
22755;BME280;11544;42.020;23.094;2023-02-01T00:28:46;97338.81;;;2.73;83.06
22755;BME280;11544;42.020;23.094;2023-02-01T00:31:12;97340.53;;;2.72;82.81
22755;BME280;11544;42.020;23.094;2023-02-01T00:33:39;97336.25;;;2.65;83.18
22755;BME280;11544;42.020;23.094;2023-02-01T00:36:08;97333.66;;;2.71;83.90
22755;BME280;11544;42.020;23.094;2023-02-01T00:38:37;97325.06;;;2.86;84.13
22755;BME280;11544;42.020;23.094;2023-02-01T00:41:13;97329.34;;;2.83;84.00
22755;BME280;11544;42.020;23.094;2023-02-01T00:43:41;97334.41;;;3.04;83.99
22755;BME280;11544;42.020;23.094;2023-02-01T00:46:09;97338.78;;;2.82;83.68
22755;BME280;11544;42.020;23.094;2023-02-01T00:48:36;97325.84;;;3.02;83.83
22755;BME280;11544;42.020;23.094;2023-02-01T00:51:07;97330.97;;;3.08;84.11
22755;BME280;11544;42.020;23.094;2023-02-01T00:53:34;97331.06;;;2.93;84.09
22755;BME280;11544;42.020;23.094;2023-02-01T00:56:04;97324.16;;;2.90;84.71
22755;BME280;11544;42.020;23.094;2023-02-01T00:58:33;97330.22;;;2.82;85.06
22755;BME280;11544;42.020;23.094;2023-02-01T01:01:07;97326.78;;;2.80;84.78
22755;BME280;11544;42.020;23.094;2023-02-01T01:03:37;97333.63;;;2.87;83.43
22755;BME280;11544;42.020;23.094;2023-02-01T01:06:10;97326.78;;;2.78;84.41
22755;BME280;11544;42.020;23.094;2023-02-01T01:08:39;97327.56;;;2.97;83.95
22755;BME280;11544;42.020;23.094;2023-02-01T01:11:08;97321.63;;;2.83;83.12
22755;BME280;11544;42.020;23.094;2023-02-01T01:13:35;97322.50;;;2.75;83.51
22755;BME280;11544;42.020;23.094;2023-02-01T01:16:04;97326.81;;;2.75;83.47
22755;BME280;11544;42.020;23.094;2023-02-01T01:18:32;97319.09;;;2.64;82.91
22755;BME280;11544;42.020;23.094;2023-02-01T01:21:00;97316.47;;;2.78;83.18
22755;BME280;11544;42.020;23.094;2023-02-01T01:23:27;97314.72;;;2.88;81.52
22755;BME280;11544;42.020;23.094;2023-02-01T01:25:54;97313.09;;;2.61;81.67
22755;BME280;11544;42.020;23.094;2023-02-01T01:28:24;97314.81;;;2.57;82.48
22755;BME280;11544;42.020;23.094;2023-02-01T01:30:51;97318.25;;;2.50;83.99
22755;BME280;11544;42.020;23.094;2023-02-01T01:33:18;97325.09;;;2.71;83.33
22755;BME280;11544;42.020;23.094;2023-02-01T01:35:46;97328.53;;;2.68;81.84
22755;BME280;11544;42.020;23.094;2023-02-01T01:38:13;97331.16;;;2.35;81.86
22755;BME280;11544;42.020;23.094;2023-02-01T01:40:45;97327.72;;;2.36;82.14
22755;BME280;11544;42.020;23.094;2023-02-01T01:43:15;97322.59;;;2.37;82.26
22755;BME280;11544;42.020;23.094;2023-02-01T01:45:47;97326.91;;;2.06;82.65
22755;BME280;11544;42.020;23.094;2023-02-01T01:48:34;97321.72;;;1.86;83.17
22755;BME280;11544;42.020;23.094;2023-02-01T01:51:10;97324.31;;;2.00;83.15
22755;BME280;11544;42.020;23.094;2023-02-01T01:53:50;97317.47;;;2.08;84.03
22755;BME280;11544;42.020;23.094;2023-02-01T01:56:20;97325.19;;;2.20;83.92
22755;BME280;11544;42.020;23.094;2023-02-01T01:58:47;97320.91;;;1.87;83.91
22755;BME280;11544;42.020;23.094;2023-02-01T02:01:14;97325.16;;;1.71;85.14
22755;BME280;11544;42.020;23.094;2023-02-01T02:03:43;97326.03;;;1.96;85.21
22755;BME280;11544;42.020;23.094;2023-02-01T02:06:30;97321.75;;;1.87;85.33
22755;BME280;11544;42.020;23.094;2023-02-01T02:09:00;97332.00;;;1.72;85.07
22755;BME280;11544;42.020;23.094;2023-02-01T02:11:27;97328.56;;;1.67;85.82
22755;BME280;11544;42.020;23.094;2023-02-01T02:13:54;97334.56;;;1.72;86.15
22755;BME280;11544;42.020;23.094;2023-02-01T02:22:12;97337.06;;;1.41;87.18
22755;BME280;11544;42.020;23.094;2023-02-01T02:27:56;97354.09;;;1.04;90.86
22755;BME280;11544;42.020;23.094;2023-02-01T02:39:05;97349.44;;;0.41;99.79
22755;BME280;11544;42.020;23.094;2023-02-01T02:44:54;97346.13;;;0.58;100.00
22755;BME280;11544;42.020;23.094;2023-02-01T02:53:57;97328.50;;;1.30;97.95
22755;BME280;11544;42.020;23.094;2023-02-01T02:56:43;97345.56;;;1.11;98.43
22755;BME280;11544;42.020;23.094;2023-02-01T02:59:32;97347.09;;;0.80;100.00
22755;BME280;11544;42.020;23.094;2023-02-01T03:02:20;97356.56;;;0.89;99.91
22755;BME280;11544;42.020;23.094;2023-02-01T03:05:06;97355.66;;;0.82;100.00
22755;BME280;11544;42.020;23.094;2023-02-01T03:13:13;97343.78;;;1.01;100.00
22755;BME280;11544;42.020;23.094;2023-02-01T03:15:58;97351.66;;;1.42;100.00
22755;BME280;11544;42.020;23.094;2023-02-01T03:18:36;97352.31;;;0.92;99.40
22755;BME280;11544;42.020;23.094;2023-02-01T03:21:13;97367.59;;;0.75;100.00
22755;BME280;11544;42.020;23.094;2023-02-01T03:23:43;97372.75;;;0.74;100.00
22755;BME280;11544;42.020;23.094;2023-02-01T03:26:15;97377.22;;;1.15;100.00
22755;BME280;11544;42.020;23.094;2023-02-01T03:28:54;97383.84;;;0.74;100.00
22755;BME280;11544;42.020;23.094;2023-02-01T03:31:23;97392.38;;;0.67;100.00
22755;BME280;11544;42.020;23.094;2023-02-01T03:33:51;97393.28;;;0.77;100.00
22755;BME280;11544;42.020;23.094;2023-02-01T03:36:28;97395.88;;;0.84;100.00
22755;BME280;11544;42.020;23.094;2023-02-01T03:39:16;97400.28;;;1.05;99.53
22755;BME280;11544;42.020;23.094;2023-02-01T03:42:27;97392.72;;;1.35;97.98
22755;BME280;11544;42.020;23.094;2023-02-01T03:45:08;97398.66;;;1.24;97.25
22755;BME280;11544;42.020;23.094;2023-02-01T03:47:40;97396.13;;;1.26;96.44
22755;BME280;11544;42.020;23.094;2023-02-01T03:50:11;97405.59;;;1.45;96.63
22755;BME280;11544;42.020;23.094;2023-02-01T03:52:43;97395.28;;;1.30;96.44
22755;BME280;11544;42.020;23.094;2023-02-01T03:55:12;97401.19;;;1.14;96.93
22755;BME280;11544;42.020;23.094;2023-02-01T03:57:44;97404.63;;;1.19;97.31
22755;BME280;11544;42.020;23.094;2023-02-01T04:02:44;97406.34;;;1.20;99.39
22755;BME280;11544;42.020;23.094;2023-02-01T04:05:14;97404.69;;;1.28;97.51
22755;BME280;11544;42.020;23.094;2023-02-01T04:07:48;97406.38;;;1.24;97.51
22755;BME280;11544;42.020;23.094;2023-02-01T04:10:15;97395.28;;;1.33;96.86
22755;BME280;11544;42.020;23.094;2023-02-01T04:12:52;97390.16;;;1.30;96.61
22755;BME280;11544;42.020;23.094;2023-02-01T04:15:22;97364.38;;;1.18;96.20
22755;BME280;11544;42.020;23.094;2023-02-01T04:17:49;97364.38;;;1.13;95.89
22755;BME280;11544;42.020;23.094;2023-02-01T04:20:16;97365.28;;;1.24;95.63
22755;BME280;11544;42.020;23.094;2023-02-01T04:22:43;97375.63;;;1.44;94.92
22755;BME280;11544;42.020;23.094;2023-02-01T04:25:10;97375.53;;;1.21;94.36
22755;BME280;11544;42.020;23.094;2023-02-01T04:27:37;97376.41;;;1.22;94.34
22755;BME280;11544;42.020;23.094;2023-02-01T04:30:04;97379.06;;;1.45;93.37
22755;BME280;11544;42.020;23.094;2023-02-01T04:32:37;97370.47;;;1.41;92.59
22755;BME280;11544;42.020;23.094;2023-02-01T04:35:04;97366.97;;;1.19;93.36
22755;BME280;11544;42.020;23.094;2023-02-01T04:37:31;97362.66;;;1.09;94.14
22755;BME280;11544;42.020;23.094;2023-02-01T04:39:58;97368.53;;;0.88;95.48
22755;BME280;11544;42.020;23.094;2023-02-01T04:42:25;97375.38;;;0.89;96.72
22755;BME280;11544;42.020;23.094;2023-02-01T04:44:52;97366.28;;;1.73;95.00
22755;BME280;11544;42.020;23.094;2023-02-01T04:47:19;97374.75;;;1.36;92.98
22755;BME280;11544;42.020;23.094;2023-02-01T04:49:46;97380.66;;;1.17;93.54
22755;BME280;11544;42.020;23.094;2023-02-01T04:52:13;97384.97;;;1.27;93.95
22755;BME280;11544;42.020;23.094;2023-02-01T04:54:41;97373.84;;;1.26;93.96
22755;BME280;11544;42.020;23.094;2023-02-01T04:57:08;97378.09;;;1.21;93.61
22755;BME280;11544;42.020;23.094;2023-02-01T04:59:35;97378.97;;;1.22;93.16
22755;BME280;11544;42.020;23.094;2023-02-01T05:02:02;97368.75;;;1.40;91.74
22755;BME280;11544;42.020;23.094;2023-02-01T05:04:29;97373.00;;;1.32;91.25
22755;BME280;11544;42.020;23.094;2023-02-01T05:06:56;97374.75;;;1.36;91.58
22755;BME280;11544;42.020;23.094;2023-02-01T05:09:23;97370.44;;;1.32;91.21
22755;BME280;11544;42.020;23.094;2023-02-01T05:11:49;97372.16;;;1.36;90.90
22755;BME280;11544;42.020;23.094;2023-02-01T05:14:35;97366.25;;;1.54;88.09
22755;BME280;11544;42.020;23.094;2023-02-01T05:17:02;97362.81;;;1.64;85.19
22755;BME280;11544;42.020;23.094;2023-02-01T05:19:33;97356.84;;;1.70;82.59
22755;BME280;11544;42.020;23.094;2023-02-01T05:22:14;97366.28;;;1.73;81.10
22755;BME280;11544;42.020;23.094;2023-02-01T05:24:41;97356.03;;;1.77;79.57
22755;BME280;11544;42.020;23.094;2023-02-01T05:27:08;97355.16;;;1.71;79.93
22755;BME280;11544;42.020;23.094;2023-02-01T05:29:35;97354.28;;;1.75;79.00
22755;BME280;11544;42.020;23.094;2023-02-01T05:32:02;97369.72;;;1.81;78.07
22755;BME280;11544;42.020;23.094;2023-02-01T05:34:47;97375.72;;;1.89;76.78
22755;BME280;11544;42.020;23.094;2023-02-01T05:37:14;97383.44;;;1.94;76.02
22755;BME280;11544;42.020;23.094;2023-02-01T05:39:41;97384.31;;;1.93;75.85
22755;BME280;11544;42.020;23.094;2023-02-01T05:42:08;97387.72;;;2.01;75.90
22755;BME280;11544;42.020;23.094;2023-02-01T05:44:35;97392.03;;;2.11;75.77
22755;BME280;11544;42.020;23.094;2023-02-01T05:47:03;97399.75;;;2.09;75.04
22755;BME280;11544;42.020;23.094;2023-02-01T05:49:30;97406.63;;;2.06;75.01
22755;BME280;11544;42.020;23.094;2023-02-01T05:51:56;97406.63;;;2.15;74.20
22755;BME280;11544;42.020;23.094;2023-02-01T05:54:26;97405.78;;;2.18;74.01
22755;BME280;11544;42.020;23.094;2023-02-01T05:56:54;97412.63;;;2.22;74.08
22755;BME280;11544;42.020;23.094;2023-02-01T05:59:21;97414.34;;;2.32;73.63
22755;BME280;11544;42.020;23.094;2023-02-01T06:01:48;97405.75;;;2.38;73.62
22755;BME280;11544;42.020;23.094;2023-02-01T06:04:15;97414.34;;;2.49;73.46
22755;BME280;11544;42.020;23.094;2023-02-01T06:06:42;97416.94;;;2.46;73.94
22755;BME280;11544;42.020;23.094;2023-02-01T06:09:09;97414.34;;;2.40;73.70
22755;BME280;11544;42.020;23.094;2023-02-01T06:11:36;97428.94;;;2.35;74.14
22755;BME280;11544;42.020;23.094;2023-02-01T06:14:03;97436.63;;;2.36;74.20
22755;BME280;11544;42.020;23.094;2023-02-01T06:16:30;97433.19;;;2.31;74.05
22755;BME280;11544;42.020;23.094;2023-02-01T06:18:58;97439.22;;;2.41;74.67
22755;BME280;11544;42.020;23.094;2023-02-01T06:21:24;97444.38;;;2.30;74.35
22755;BME280;11544;42.020;23.094;2023-02-01T06:23:55;97436.63;;;2.45;73.93
22755;BME280;11544;42.020;23.094;2023-02-01T06:26:24;97439.22;;;2.38;73.73
22755;BME280;11544;42.020;23.094;2023-02-01T06:28:51;97441.78;;;2.33;73.87
22755;BME280;11544;42.020;23.094;2023-02-01T06:31:21;97442.63;;;2.64;74.17
22755;BME280;11544;42.020;23.094;2023-02-01T06:33:48;97443.53;;;2.51;73.86
22755;BME280;11544;42.020;23.094;2023-02-01T06:36:15;97446.94;;;2.73;73.90
22755;BME280;11544;42.020;23.094;2023-02-01T06:38:42;97446.91;;;2.90;72.14
22755;BME280;11544;42.020;23.094;2023-02-01T06:41:10;97438.34;;;2.74;72.33
22755;BME280;11544;42.020;23.094;2023-02-01T06:43:38;97440.94;;;2.86;71.65
22755;BME280;11544;42.020;23.094;2023-02-01T06:46:12;97441.75;;;2.90;71.03
22755;BME280;11544;42.020;23.094;2023-02-01T06:48:39;97442.63;;;3.07;70.42
22755;BME280;11544;42.020;23.094;2023-02-01T06:51:19;97434.84;;;3.20;69.45
22755;BME280;11544;42.020;23.094;2023-02-01T06:53:46;97438.34;;;2.89;69.78
22755;BME280;11544;42.020;23.094;2023-02-01T06:56:13;97442.63;;;2.83;70.25
22755;BME280;11544;42.020;23.094;2023-02-01T06:58:40;97435.78;;;2.85;70.33
22755;BME280;11544;42.020;23.094;2023-02-01T07:01:08;97434.88;;;3.04;69.35
22755;BME280;11544;42.020;23.094;2023-02-01T07:03:36;97434.03;;;3.05;69.51
22755;BME280;11544;42.020;23.094;2023-02-01T07:06:03;97435.69;;;3.25;68.46
22755;BME280;11544;42.020;23.094;2023-02-01T07:08:32;97436.59;;;3.10;68.32
22755;BME280;11544;42.020;23.094;2023-02-01T07:11:04;97435.66;;;3.35;67.73
22755;BME280;11544;42.020;23.094;2023-02-01T07:13:32;97443.25;;;3.69;66.76
22755;BME280;11544;42.020;23.094;2023-02-01T07:16:03;97446.66;;;3.77;65.61
22755;BME280;11544;42.020;23.094;2023-02-01T07:18:31;97448.44;;;3.66;65.56
22755;BME280;11544;42.020;23.094;2023-02-01T07:20:59;97458.00;;;3.36;66.23
22755;BME280;11544;42.020;23.094;2023-02-01T07:23:26;97458.84;;;3.38;66.50
22755;BME280;11544;42.020;23.094;2023-02-01T07:25:58;97470.78;;;3.56;65.68
22755;BME280;11544;42.020;23.094;2023-02-01T07:28:25;97478.41;;;3.90;65.74
22755;BME280;11544;42.020;23.094;2023-02-01T07:30:52;97481.00;;;3.87;65.01
22755;BME280;11544;42.020;23.094;2023-02-01T07:33:21;97485.28;;;3.88;64.65
22755;BME280;11544;42.020;23.094;2023-02-01T07:35:50;97487.00;;;3.89;63.99
22755;BME280;11544;42.020;23.094;2023-02-01T07:38:17;97486.09;;;4.01;63.87
22755;BME280;11544;42.020;23.094;2023-02-01T07:40:46;97496.47;;;3.84;63.50
22755;BME280;11544;42.020;23.094;2023-02-01T07:43:12;97501.56;;;4.09;63.12
22755;BME280;11544;42.020;23.094;2023-02-01T07:45:41;97498.09;;;4.10;63.35
22755;BME280;11544;42.020;23.094;2023-02-01T07:48:15;97498.13;;;4.07;63.40
22755;BME280;11544;42.020;23.094;2023-02-01T07:50:42;97499.69;;;4.29;63.52
22755;BME280;11544;42.020;23.094;2023-02-01T07:53:09;97504.25;;;3.81;62.92
22755;BME280;11544;42.020;23.094;2023-02-01T07:55:47;97509.41;;;3.75;63.79
22755;BME280;11544;42.020;23.094;2023-02-01T07:58:14;97506.00;;;3.70;64.07
22755;BME280;11544;42.020;23.094;2023-02-01T08:00:45;97503.41;;;3.71;63.77
22755;BME280;11544;42.020;23.094;2023-02-01T08:03:33;97517.09;;;3.87;64.18
22755;BME280;11544;42.020;23.094;2023-02-01T08:06:02;97513.59;;;4.05;64.00
22755;BME280;11544;42.020;23.094;2023-02-01T08:08:29;97516.22;;;3.91;63.65
22755;BME280;11544;42.020;23.094;2023-02-01T08:11:04;97511.81;;;4.13;63.57
22755;BME280;11544;42.020;23.094;2023-02-01T08:13:33;97511.84;;;4.10;63.27
22755;BME280;11544;42.020;23.094;2023-02-01T08:16:04;97518.66;;;4.22;63.01
22755;BME280;11544;42.020;23.094;2023-02-01T08:18:32;97516.16;;;4.11;63.44
22755;BME280;11544;42.020;23.094;2023-02-01T08:21:04;97525.66;;;4.00;63.71
22755;BME280;11544;42.020;23.094;2023-02-01T08:23:31;97533.34;;;4.08;64.03
22755;BME280;11544;42.020;23.094;2023-02-01T08:26:15;97546.16;;;4.24;63.41
22755;BME280;11544;42.020;23.094;2023-02-01T08:28:52;97536.72;;;4.28;62.77
22755;BME280;11544;42.020;23.094;2023-02-01T08:31:21;97542.75;;;4.26;63.75
22755;BME280;11544;42.020;23.094;2023-02-01T08:33:56;97536.72;;;4.28;63.68
22755;BME280;11544;42.020;23.094;2023-02-01T08:36:24;97532.34;;;4.38;63.52
22755;BME280;11544;42.020;23.094;2023-02-01T08:38:52;97526.31;;;4.42;62.96
22755;BME280;11544;42.020;23.094;2023-02-01T08:41:22;97527.16;;;4.41;63.75
22755;BME280;11544;42.020;23.094;2023-02-01T08:43:51;97524.56;;;4.42;62.39
22755;BME280;11544;42.020;23.094;2023-02-01T08:46:18;97518.38;;;4.65;62.03
22755;BME280;11544;42.020;23.094;2023-02-01T08:49:00;97514.16;;;4.55;61.81
22755;BME280;11544;42.020;23.094;2023-02-01T08:52:13;97524.56;;;4.45;62.19
22755;BME280;11544;42.020;23.094;2023-02-01T08:54:42;97526.22;;;4.54;61.92
22755;BME280;11544;42.020;23.094;2023-02-01T08:57:10;97530.56;;;4.46;62.14
22755;BME280;11544;42.020;23.094;2023-02-01T08:59:40;97533.94;;;4.56;62.38
22755;BME280;11544;42.020;23.094;2023-02-01T09:02:12;97533.84;;;4.70;61.70
22755;BME280;11544;42.020;23.094;2023-02-01T09:04:40;97532.94;;;4.78;61.60
22755;BME280;11544;42.020;23.094;2023-02-01T09:07:11;97533.75;;;4.83;61.23
22755;BME280;11544;42.020;23.094;2023-02-01T09:09:39;97531.88;;;5.04;61.46
22755;BME280;11544;42.020;23.094;2023-02-01T09:12:06;97539.72;;;4.93;61.39
22755;BME280;11544;42.020;23.094;2023-02-01T09:14:33;97536.19;;;5.00;59.87
22755;BME280;11544;42.020;23.094;2023-02-01T09:17:00;97538.88;;;4.90;59.61
22755;BME280;11544;42.020;23.094;2023-02-01T09:19:28;97531.06;;;4.97;59.88
22755;BME280;11544;42.020;23.094;2023-02-01T09:21:55;97537.06;;;5.02;60.17
22755;BME280;11544;42.020;23.094;2023-02-01T09:24:22;97539.63;;;5.02;60.47
22755;BME280;11544;42.020;23.094;2023-02-01T09:26:52;97529.19;;;5.16;60.34
22755;BME280;11544;42.020;23.094;2023-02-01T09:29:19;97529.22;;;5.13;59.74
22755;BME280;11544;42.020;23.094;2023-02-01T09:31:46;97524.09;;;5.08;59.83
22755;BME280;11544;42.020;23.094;2023-02-01T09:34:38;97527.28;;;5.34;60.56
22755;BME280;11544;42.020;23.094;2023-02-01T09:37:08;97521.31;;;5.30;59.48
22755;BME280;11544;42.020;23.094;2023-02-01T09:39:35;97510.03;;;5.36;60.02
22755;BME280;11544;42.020;23.094;2023-02-01T09:47:35;97515.88;;;5.58;59.59
22755;BME280;11544;42.020;23.094;2023-02-01T09:50:18;97511.50;;;5.60;59.45
22755;BME280;11544;42.020;23.094;2023-02-01T09:53:28;97506.09;;;5.83;58.26
22755;BME280;11544;42.020;23.094;2023-02-01T09:56:04;97510.22;;;5.99;58.21
22755;BME280;11544;42.020;23.094;2023-02-01T10:01:03;97500.56;;;6.13;57.28
22755;BME280;11544;42.020;23.094;2023-02-01T10:03:34;97489.28;;;6.18;56.61
22755;BME280;11544;42.020;23.094;2023-02-01T10:14:55;97463.28;;;6.25;53.97
22755;BME280;11544;42.020;23.094;2023-02-01T10:17:55;97455.84;;;6.61;54.48
22755;BME280;11544;42.020;23.094;2023-02-01T10:20:35;97461.47;;;7.37;52.83
22755;BME280;11544;42.020;23.094;2023-02-01T10:28:46;97452.69;;;7.45;50.17
22755;BME280;11544;42.020;23.094;2023-02-01T10:31:15;97465.44;;;7.09;52.63
22755;BME280;11544;42.020;23.094;2023-02-01T10:33:50;97459.63;;;6.94;51.72
22755;BME280;11544;42.020;23.094;2023-02-01T10:36:32;97452.03;;;6.84;52.27
22755;BME280;11544;42.020;23.094;2023-02-01T10:39:04;97449.59;;;6.74;53.03
22755;BME280;11544;42.020;23.094;2023-02-01T10:41:35;97456.59;;;6.69;53.42
22755;BME280;11544;42.020;23.094;2023-02-01T10:44:07;97456.81;;;6.54;53.00
22755;BME280;11544;42.020;23.094;2023-02-01T10:46:36;97453.16;;;6.67;52.30
22755;BME280;11544;42.020;23.094;2023-02-01T10:49:04;97449.25;;;7.44;51.27
22755;BME280;11544;42.020;23.094;2023-02-01T10:51:44;97459.00;;;6.80;52.29
22755;BME280;11544;42.020;23.094;2023-02-01T10:54:21;97450.72;;;6.58;53.19
22755;BME280;11544;42.020;23.094;2023-02-01T10:56:49;97449.88;;;6.59;52.62
22755;BME280;11544;42.020;23.094;2023-02-01T10:59:23;97458.06;;;6.30;52.36
22755;BME280;11544;42.020;23.094;2023-02-01T11:01:59;97444.00;;;6.46;54.33
22755;BME280;11544;42.020;23.094;2023-02-01T11:04:36;97452.69;;;6.44;53.96
22755;BME280;11544;42.020;23.094;2023-02-01T11:09:56;97437.97;;;6.44;53.32
22755;BME280;11544;42.020;23.094;2023-02-01T11:12:32;97440.63;;;6.43;54.36
22755;BME280;11544;42.020;23.094;2023-02-01T11:15:23;97432.78;;;6.47;54.03
22755;BME280;11544;42.020;23.094;2023-02-01T11:17:52;97420.63;;;6.49;52.92
22755;BME280;11544;42.020;23.094;2023-02-01T11:20:38;97400.88;;;6.44;53.54
22755;BME280;11544;42.020;23.094;2023-02-01T11:23:27;97397.78;;;6.73;52.83
22755;BME280;11544;42.020;23.094;2023-02-01T11:25:58;97392.06;;;7.05;52.01
22755;BME280;11544;42.020;23.094;2023-02-01T11:28:29;97386.16;;;7.42;52.23
22755;BME280;11544;42.020;23.094;2023-02-01T11:31:02;97387.84;;;7.45;50.32
22755;BME280;11544;42.020;23.094;2023-02-01T11:33:34;97381.81;;;7.84;51.69
22755;BME280;11544;42.020;23.094;2023-02-01T11:36:35;97391.56;;;7.73;50.20
22755;BME280;11544;42.020;23.094;2023-02-01T11:39:15;97383.44;;;7.89;49.45
22755;BME280;11544;42.020;23.094;2023-02-01T11:42:00;97383.69;;;7.36;48.82
22755;BME280;11544;42.020;23.094;2023-02-01T11:44:40;97382.44;;;7.12;49.95
22755;BME280;11544;42.020;23.094;2023-02-01T11:47:31;97384.09;;;7.58;48.62
22755;BME280;11544;42.020;23.094;2023-02-01T11:50:17;97385.75;;;7.60;49.61
22755;BME280;11544;42.020;23.094;2023-02-01T11:53:06;97392.38;;;7.35;50.34
22755;BME280;11544;42.020;23.094;2023-02-01T11:58:20;97401.25;;;7.21;50.58
22755;BME280;11544;42.020;23.094;2023-02-01T12:01:11;97398.09;;;7.06;50.21
22755;BME280;11544;42.020;23.094;2023-02-01T12:06:48;97388.28;;;7.21;49.92
22755;BME280;11544;42.020;23.094;2023-02-01T12:40:05;97349.44;;;8.01;48.36
22755;BME280;11544;42.020;23.094;2023-02-01T12:45:58;97335.34;;;8.11;48.80
22755;BME280;11544;42.020;23.094;2023-02-01T12:48:35;97324.38;;;7.98;47.86
22755;BME280;11544;42.020;23.094;2023-02-01T12:51:18;97321.22;;;8.23;48.41
22755;BME280;11544;42.020;23.094;2023-02-01T12:56:48;97316.16;;;8.53;47.36
22755;BME280;11544;42.020;23.094;2023-02-01T13:02:44;97318.09;;;8.09;47.92
22755;BME280;11544;42.020;23.094;2023-02-01T13:05:19;97307.75;;;8.07;47.45
22755;BME280;11544;42.020;23.094;2023-02-01T13:08:02;97307.00;;;8.02;47.49
22755;BME280;11544;42.020;23.094;2023-02-01T13:10:47;97321.69;;;8.03;48.05
22755;BME280;11544;42.020;23.094;2023-02-01T13:16:22;97311.78;;;8.19;48.43
22755;BME280;11544;42.020;23.094;2023-02-01T13:18:59;97301.72;;;8.05;47.57
22755;BME280;11544;42.020;23.094;2023-02-01T13:21:33;97294.19;;;8.32;46.77
22755;BME280;11544;42.020;23.094;2023-02-01T13:24:02;97300.63;;;8.15;47.53
22755;BME280;11544;42.020;23.094;2023-02-01T13:26:30;97295.97;;;8.28;46.51
22755;BME280;11544;42.020;23.094;2023-02-01T13:29:04;97297.88;;;7.85;46.51
22755;BME280;11544;42.020;23.094;2023-02-01T13:31:50;97290.47;;;8.06;47.41
22755;BME280;11544;42.020;23.094;2023-02-01T13:34:46;97290.75;;;8.30;47.55
22755;BME280;11544;42.020;23.094;2023-02-01T13:37:44;97309.47;;;8.44;47.59
22755;BME280;11544;42.020;23.094;2023-02-01T13:42:49;97305.09;;;8.46;47.42
22755;BME280;11544;42.020;23.094;2023-02-01T13:45:21;97310.53;;;8.35;47.24
22755;BME280;11544;42.020;23.094;2023-02-01T13:47:52;97298.97;;;8.48;46.99
22755;BME280;11544;42.020;23.094;2023-02-01T13:50:30;97302.53;;;8.44;46.49
22755;BME280;11544;42.020;23.094;2023-02-01T13:53:04;97302.50;;;8.46;46.99
22755;BME280;11544;42.020;23.094;2023-02-01T13:55:40;97300.13;;;8.35;48.87
22755;BME280;11544;42.020;23.094;2023-02-01T14:00:39;97301.59;;;8.47;47.36
22755;BME280;11544;42.020;23.094;2023-02-01T14:03:13;97316.88;;;8.23;47.28
22755;BME280;11544;42.020;23.094;2023-02-01T14:08:36;97310.22;;;7.74;48.98
22755;BME280;11544;42.020;23.094;2023-02-01T14:11:04;97311.34;;;7.64;48.33
22755;BME280;11544;42.020;23.094;2023-02-01T14:26:44;97303.63;;;7.98;48.43
22755;BME280;11544;42.020;23.094;2023-02-01T14:34:34;97307.63;;;8.12;48.89
22755;BME280;11544;42.020;23.094;2023-02-01T14:37:05;97302.44;;;8.12;46.95
22755;BME280;11544;42.020;23.094;2023-02-01T14:39:58;97308.94;;;7.94;47.40
22755;BME280;11544;42.020;23.094;2023-02-01T14:42:28;97307.28;;;7.90;47.53
22755;BME280;11544;42.020;23.094;2023-02-01T14:53:11;97306.81;;;7.72;46.78
22755;BME280;11544;42.020;23.094;2023-02-01T14:58:18;97311.91;;;7.77;47.72
22755;BME280;11544;42.020;23.094;2023-02-01T15:00:57;97309.28;;;7.78;47.35
22755;BME280;11544;42.020;23.094;2023-02-01T15:07:20;97308.44;;;7.76;47.63
22755;BME280;11544;42.020;23.094;2023-02-01T15:09:52;97307.81;;;7.67;48.26
22755;BME280;11544;42.020;23.094;2023-02-01T15:12:26;97314.69;;;7.68;48.91
22755;BME280;11544;42.020;23.094;2023-02-01T15:15:14;97316.25;;;7.76;48.94
22755;BME280;11544;42.020;23.094;2023-02-01T15:17:58;97315.59;;;7.67;48.68
22755;BME280;11544;42.020;23.094;2023-02-01T15:20:28;97312.16;;;7.66;48.92
22755;BME280;11544;42.020;23.094;2023-02-01T15:23:01;97310.69;;;7.54;48.91
22755;BME280;11544;42.020;23.094;2023-02-01T15:25:30;97311.78;;;7.44;49.16
22755;BME280;11544;42.020;23.094;2023-02-01T15:27:58;97310.34;;;7.29;49.46
22755;BME280;11544;42.020;23.094;2023-02-01T15:30:29;97299.44;;;7.91;57.48
22755;BME280;11544;42.020;23.094;2023-02-01T15:39:24;97297.63;;;7.59;51.17
22755;BME280;11544;42.020;23.094;2023-02-01T15:42:16;97296.72;;;7.18;51.70
22755;BME280;11544;42.020;23.094;2023-02-01T15:44:52;97296.63;;;7.24;51.20
22755;BME280;11544;42.020;23.094;2023-02-01T15:47:25;97295.81;;;6.78;52.51
22755;BME280;11544;42.020;23.094;2023-02-01T15:50:04;97304.88;;;6.54;53.30
22755;BME280;11544;42.020;23.094;2023-02-01T15:55:40;97315.06;;;6.64;53.11
22755;BME280;11544;42.020;23.094;2023-02-01T15:58:23;97311.53;;;6.68;53.41
22755;BME280;11544;42.020;23.094;2023-02-01T16:03:39;97315.56;;;5.79;56.10
22755;BME280;11544;42.020;23.094;2023-02-01T16:06:29;97315.59;;;5.76;57.75
22755;BME280;11544;42.020;23.094;2023-02-01T16:11:33;97325.47;;;5.49;59.42
22755;BME280;11544;42.020;23.094;2023-02-01T16:14:29;97328.16;;;5.41;59.00